Time;durP1;ratioP1;P1;durP2;ratioP2;P2;SDS_P1;SDS_P2;PMS_P1;PMS_P2;Temp;Humidity;BMP_temperature;BMP_pressure;BME280_temperature;BME280_humidity;BME280_pressure;Samples;Min_cycle;Max_cycle;Signal;HPM_P1;HPM_P2
2022/09/01 10:27:57;;;;;;;8.75;4.57;;;;;;;20.91;55.60;94209.34;853321;23;20500;-91
2022/09/01 10:30:46;;;;;;;5.45;4.90;;;;;;;20.97;55.34;94223.81;4885214;29;20321;-94
2022/09/01 10:33:32;;;;;;;4.50;4.15;;;;;;;21.24;53.49;94217.69;4878958;29;20243;-92
2022/09/01 10:36:18;;;;;;;4.13;3.60;;;;;;;19.96;57.69;94214.84;4872776;29;20260;-94
2022/09/01 10:39:04;;;;;;;5.50;4.57;;;;;;;21.19;56.71;94216.09;4857383;29;20648;-94
2022/09/01 10:41:55;;;;;;;4.50;4.20;;;;;;;20.99;56.34;94221.03;4871684;29;20271;-93
2022/09/01 10:44:57;;;;;;;4.32;3.92;;;;;;;21.69;55.28;94222.13;4871589;29;20289;-96
2022/09/01 10:47:41;;;;;;;4.68;4.07;;;;;;;21.34;54.14;94223.78;4860376;29;20242;-93
2022/09/01 10:50:31;;;;;;;4.63;3.65;;;;;;;21.04;55.16;94219.06;4850506;29;20258;-95
2022/09/01 10:53:32;;;;;;;3.53;3.22;;;;;;;21.18;55.49;94220.34;4862467;29;20209;-93
2022/09/01 10:56:36;;;;;;;4.05;3.65;;;;;;;21.67;53.87;94222.06;4856665;29;20725;-96
2022/09/01 10:59:21;;;;;;;3.47;3.17;;;;;;;21.06;53.59;94225.56;4863255;29;20213;-91
2022/09/01 11:02:06;;;;;;;4.60;4.18;;;;;;;20.47;55.80;94223.34;4860862;29;20441;-94
2022/09/01 11:04:50;;;;;;;4.82;3.90;;;;;;;20.55;54.76;94222.94;4850914;29;20204;-92
2022/09/01 11:07:37;;;;;;;4.50;3.40;;;;;;;20.91;52.78;94215.78;4871348;29;20233;-95
2022/09/01 11:10:50;;;;;;;7.70;3.22;;;;;;;21.24;52.70;94212.00;4881183;29;20205;-96
2022/09/01 11:13:47;;;;;;;4.32;3.90;;;;;;;20.04;55.57;94206.66;4868197;29;20242;-94
2022/09/01 11:16:40;;;;;;;4.78;3.70;;;;;;;21.07;55.89;94220.59;4869684;29;20549;-96
2022/09/01 11:19:43;;;;;;;3.33;3.03;;;;;;;20.53;55.12;94212.19;4837673;29;20309;-92
2022/09/01 11:22:36;;;;;;;6.25;3.17;;;;;;;20.61;52.93;94228.13;4836317;29;20296;-89
2022/09/01 11:25:33;;;;;;;4.07;2.90;;;;;;;20.04;55.92;94228.69;4857732;29;20202;-91
2022/09/01 11:28:26;;;;;;;6.05;3.80;;;;;;;20.46;57.39;94201.94;4856415;29;20269;-93
2022/09/01 11:31:23;;;;;;;4.70;4.18;;;;;;;20.68;54.38;94216.28;4854865;29;20216;-92
2022/09/01 11:34:18;;;;;;;3.63;3.33;;;;;;;20.44;55.59;94216.09;4864294;29;20292;-94
2022/09/01 11:37:13;;;;;;;3.60;3.30;;;;;;;21.22;54.82;94206.25;4852801;29;20185;-96
2022/09/01 11:40:02;;;;;;;3.72;3.42;;;;;;;20.41;55.32;94217.41;4858411;29;20323;-94
2022/09/01 11:42:50;;;;;;;4.28;3.88;;;;;;;20.42;55.56;94210.34;4869571;29;20216;-93
2022/09/01 11:45:49;;;;;;;5.22;4.72;;;;;;;21.06;54.01;94208.47;4856642;29;20303;-93
2022/09/01 11:48:45;;;;;;;4.80;4.32;;;;;;;21.27;53.23;94216.41;4868988;29;20284;-95
2022/09/01 11:51:45;;;;;;;4.22;3.92;;;;;;;20.89;55.85;94212.09;4861675;29;20243;-94
2022/09/01 11:54:40;;;;;;;4.53;4.03;;;;;;;20.31;55.26;94208.44;4860565;29;20226;-90
2022/09/01 11:57:27;;;;;;;4.43;3.90;;;;;;;21.19;53.89;94204.69;4862204;29;20311;-94
2022/09/01 12:00:23;;;;;;;5.20;4.25;;;;;;;20.90;55.25;94208.63;4853092;29;20294;-92
2022/09/01 12:03:23;;;;;;;4.38;4.00;;;;;;;21.10;55.49;94197.22;4857411;29;20334;-93
2022/09/01 12:06:12;;;;;;;6.18;3.33;;;;;;;20.52;53.68;94193.66;4870616;29;20216;-94
2022/09/01 12:09:03;;;;;;;3.88;3.45;;;;;;;20.63;55.04;94208.25;4861356;29;20209;-94
2022/09/01 12:11:50;;;;;;;5.25;3.53;;;;;;;21.04;53.75;94204.81;4863422;29;20205;-90
2022/09/01 12:14:34;;;;;;;3.40;3.10;;;;;;;20.29;55.63;94194.13;4854765;29;20229;-91
2022/09/01 12:17:19;;;;;;;4.00;3.08;;;;;;;21.06;54.97;94184.94;4863129;29;20256;-94
2022/09/01 12:20:24;;;;;;;4.80;3.28;;;;;;;21.78;52.89;94198.22;4856206;29;20204;-93
2022/09/01 12:23:25;;;;;;;4.90;3.20;;;;;;;20.85;53.72;94183.47;4857523;29;20315;-95
2022/09/01 12:26:18;;;;;;;3.65;3.20;;;;;;;21.72;51.69;94195.16;4864695;29;20215;-93
2022/09/01 12:29:05;;;;;;;4.20;2.80;;;;;;;21.27;51.41;94190.75;4856519;29;20251;-93
2022/09/01 12:31:52;;;;;;;3.45;2.55;;;;;;;21.17;52.97;94195.38;4845845;29;20248;-94
2022/09/01 12:34:48;;;;;;;3.97;2.75;;;;;;;21.62;50.40;94186.97;4848222;29;20252;-93
2022/09/01 12:37:32;;;;;;;2.80;2.40;;;;;;;21.35;50.08;94196.72;4850689;29;20216;-93
2022/09/01 12:40:22;;;;;;;2.92;2.22;;;;;;;22.28;47.99;94198.44;4856033;29;20289;-91
2022/09/01 12:43:06;;;;;;;2.60;2.40;;;;;;;21.96;51.02;94201.69;4871064;29;20363;-95
2022/09/01 12:45:50;;;;;;;4.60;3.10;;;;;;;22.02;49.65;94187.63;4864442;29;20212;-93
2022/09/01 12:48:37;;;;;;;3.13;2.83;;;;;;;22.84;48.06;94191.63;4842476;29;20216;-92
2022/09/01 12:51:22;;;;;;;4.55;3.20;;;;;;;21.24;51.10;94194.91;4831612;29;20213;-93
2022/09/01 12:54:08;;;;;;;3.83;3.15;;;;;;;21.44;50.95;94188.47;4858805;29;20216;-94
2022/09/01 12:56:57;;;;;;;6.80;2.55;;;;;;;22.11;47.34;94188.63;4865814;29;20232;-93
2022/09/01 12:59:41;;;;;;;2.97;2.40;;;;;;;21.82;48.55;94195.50;4864250;29;20289;-95
2022/09/01 13:02:32;;;;;;;3.05;2.72;;;;;;;22.14;48.99;94193.75;4861006;29;20209;-96
2022/09/01 13:05:26;;;;;;;2.88;2.67;;;;;;;21.94;51.20;94193.03;4871567;29;20216;-94
2022/09/01 13:08:13;;;;;;;4.85;2.97;;;;;;;21.39;51.36;94188.31;4855087;29;20552;-95
2022/09/01 13:11:06;;;;;;;3.35;2.60;;;;;;;22.06;48.58;94187.75;4850239;29;20205;-92
2022/09/01 13:13:51;;;;;;;4.70;2.78;;;;;;;22.09;51.03;94192.16;4855954;29;20652;-91
2022/09/01 13:16:38;;;;;;;8.68;2.25;;;;;;;20.95;48.93;94183.84;4845646;29;20210;-93
2022/09/01 13:19:22;;;;;;;4.55;2.60;;;;;;;22.14;48.76;94188.03;4864078;29;20220;-92
2022/09/01 13:22:08;;;;;;;3.35;2.13;;;;;;;22.06;49.81;94182.03;4846960;29;20223;-93
2022/09/01 13:24:52;;;;;;;3.38;2.78;;;;;;;21.77;50.28;94179.63;4846708;29;20229;-92
2022/09/01 13:27:43;;;;;;;3.22;2.78;;;;;;;21.92;48.75;94183.66;4853364;29;20201;-94
2022/09/01 13:30:29;;;;;;;1.75;1.65;;;;;;;22.30;46.43;94187.81;4866355;29;20201;-90
2022/09/01 13:33:13;;;;;;;2.28;2.00;;;;;;;21.73;45.06;94179.47;4861212;29;20270;-93
2022/09/01 13:35:58;;;;;;;3.03;2.13;;;;;;;22.04;46.45;94179.13;4864977;29;20233;-93
2022/09/01 13:38:42;;;;;;;2.38;2.17;;;;;;;21.98;47.83;94176.06;4855968;29;20209;-94
2022/09/01 13:41:26;;;;;;;2.28;2.00;;;;;;;22.26;46.17;94176.25;4844381;29;20216;-93
2022/09/01 13:44:11;;;;;;;2.47;2.15;;;;;;;21.56;49.55;94172.50;4857977;29;20209;-94
2022/09/01 13:46:57;;;;;;;2.40;2.13;;;;;;;21.87;48.33;94162.84;4834054;29;20209;-95
2022/09/01 13:49:42;;;;;;;2.03;1.92;;;;;;;22.45;45.99;94164.03;4876864;29;20205;-91
2022/09/01 13:52:26;;;;;;;3.13;2.30;;;;;;;22.67;46.50;94163.94;4867246;29;20283;-94
2022/09/01 13:55:14;;;;;;;2.47;2.22;;;;;;;21.89;46.40;94165.78;4870196;29;20229;-93
2022/09/01 13:57:58;;;;;;;2.60;2.10;;;;;;;21.65;48.36;94159.25;4885260;29;20229;-93
2022/09/01 14:00:45;;;;;;;3.88;2.28;;;;;;;22.08;48.75;94162.16;4838532;29;20216;-96
2022/09/01 14:03:30;;;;;;;2.30;2.00;;;;;;;21.27;48.65;94148.00;4862975;29;20204;-91
2022/09/01 14:06:14;;;;;;;5.00;1.95;;;;;;;22.40;47.45;94144.56;4833650;29;20342;-93
2022/09/01 14:08:58;;;;;;;2.30;2.10;;;;;;;22.33;48.22;94143.66;4834783;29;20655;-95
2022/09/01 14:11:42;;;;;;;1.95;1.85;;;;;;;22.14;46.57;94142.34;4869193;29;20231;-92
2022/09/01 14:14:26;;;;;;;2.35;2.10;;;;;;;22.67;45.65;94149.66;4840033;29;20760;-91
2022/09/01 14:17:11;;;;;;;1.58;1.48;;;;;;;22.44;45.88;94144.69;4846790;29;20315;-91
2022/09/01 14:19:56;;;;;;;2.45;1.80;;;;;;;22.72;46.27;94156.97;4861780;29;20214;-92
2022/09/01 14:22:40;;;;;;;2.42;2.00;;;;;;;22.48;46.22;94139.09;4851370;29;20275;-95
2022/09/01 14:25:25;;;;;;;3.95;1.50;;;;;;;22.65;47.30;94141.03;4855697;29;20231;-96
2022/09/01 14:28:10;;;;;;;2.13;1.65;;;;;;;22.66;45.26;94142.50;4860190;29;20212;-89
2022/09/01 14:30:56;;;;;;;2.10;1.90;;;;;;;22.87;45.02;94135.28;4862578;29;20215;-92
2022/09/01 14:33:43;;;;;;;5.32;2.08;;;;;;;22.09;47.82;94135.06;4849091;29;20529;-91
2022/09/01 14:36:30;;;;;;;1.80;1.55;;;;;;;22.33;46.87;94129.38;4852328;29;20213;-91
2022/09/01 14:39:14;;;;;;;3.15;1.50;;;;;;;22.38;47.65;94130.22;4851678;29;20220;-92
2022/09/01 14:41:58;;;;;;;2.05;1.70;;;;;;;22.32;49.06;94130.03;4859751;29;20222;-92
2022/09/01 14:44:42;;;;;;;1.80;1.70;;;;;;;22.51;47.18;94129.19;4856571;29;20698;-89
2022/09/01 14:47:26;;;;;;;3.50;1.65;;;;;;;22.34;46.50;94121.56;4851686;29;20287;-89
2022/09/01 14:50:11;;;;;;;2.13;1.80;;;;;;;22.63;46.36;94132.41;4850210;29;20209;-89
2022/09/01 14:53:00;;;;;;;3.35;2.10;;;;;;;22.14;45.81;94122.38;4863397;29;20407;-90
2022/09/01 14:55:45;;;;;;;4.13;2.30;;;;;;;22.35;47.19;94125.84;4848638;29;20259;-88
2022/09/01 14:58:30;;;;;;;2.42;2.03;;;;;;;22.15;46.80;94121.00;4846931;29;20681;-89
2022/09/01 15:01:15;;;;;;;3.30;2.00;;;;;;;22.11;49.05;94120.84;4857575;29;20699;-91
2022/09/01 15:03:59;;;;;;;4.53;1.60;;;;;;;21.74;49.14;94121.78;4844235;29;20209;-89
2022/09/01 15:06:44;;;;;;;2.22;1.90;;;;;;;21.95;47.99;94111.78;4868022;29;20303;-91
2022/09/01 15:09:28;;;;;;;1.65;1.55;;;;;;;22.03;49.27;94117.75;4884531;29;20205;-91
2022/09/01 15:12:12;;;;;;;2.83;2.00;;;;;;;21.36;48.98;94121.22;4859791;29;20205;-89
2022/09/01 15:14:58;;;;;;;4.65;2.03;;;;;;;21.60;48.34;94120.59;4857717;29;20298;-88
2022/09/01 15:17:43;;;;;;;2.25;1.73;;;;;;;21.71;47.76;94119.53;4856184;29;20224;-87
2022/09/01 15:20:46;;;;;;;2.75;1.80;;;;;;;21.96;47.68;94118.94;4862542;29;20215;-93
2022/09/01 15:23:30;;;;;;;3.95;1.88;;;;;;;21.75;47.93;94123.25;4863265;29;20259;-88
2022/09/01 15:26:16;;;;;;;2.28;1.58;;;;;;;22.04;44.60;94127.75;4850138;29;20262;-87
2022/09/01 15:29:03;;;;;;;2.80;1.83;;;;;;;21.55;44.48;94118.97;4856844;29;20228;-88
2022/09/01 15:31:47;;;;;;;2.33;1.60;;;;;;;21.03;45.53;94124.31;4874416;29;20300;-91
2022/09/01 15:34:31;;;;;;;1.73;1.60;;;;;;;21.01;47.32;94124.22;4861334;29;20224;-89
2022/09/01 15:37:15;;;;;;;3.75;1.58;;;;;;;21.36;47.41;94126.91;4866186;29;20219;-92
2022/09/01 15:39:59;;;;;;;2.15;1.85;;;;;;;21.80;47.47;94112.69;4845125;29;20220;-88
2022/09/01 15:42:44;;;;;;;4.35;2.20;;;;;;;21.69;48.00;94113.75;4868148;29;20216;-91
2022/09/01 15:45:28;;;;;;;3.30;1.85;;;;;;;21.72;48.57;94109.59;4857177;29;20193;-92
2022/09/01 15:48:13;;;;;;;2.33;1.77;;;;;;;21.91;47.97;94120.16;4842923;29;20218;-90
2022/09/01 15:51:28;;;;;;;3.13;2.05;;;;;;;21.60;48.81;94117.75;4850642;29;20210;-91
2022/09/01 15:54:16;;;;;;;4.95;2.22;;;;;;;21.30;51.27;94129.56;4846208;29;20209;-89
2022/09/01 15:57:00;;;;;;;2.70;2.50;;;;;;;20.94;51.82;94128.25;4867312;29;20215;-89
2022/09/01 15:59:45;;;;;;;2.70;2.47;;;;;;;20.36;52.03;94124.72;4851729;29;20236;-91
2022/09/01 16:02:29;;;;;;;4.80;2.42;;;;;;;20.37;52.70;94125.41;4872114;29;20369;-90
2022/09/01 16:05:13;;;;;;;5.47;2.40;;;;;;;19.98;53.33;94123.19;4855921;29;20365;-92
2022/09/01 16:08:00;;;;;;;4.07;2.53;;;;;;;20.06;53.62;94127.06;4855714;29;20228;-90
2022/09/01 16:10:45;;;;;;;6.68;2.85;;;;;;;20.00;53.99;94123.25;4868749;29;20296;-90
2022/09/01 16:13:29;;;;;;;2.70;2.50;;;;;;;19.90;55.35;94125.72;4869306;29;20205;-92
2022/09/01 16:16:36;;;;;;;3.15;2.70;;;;;;;19.74;55.91;94123.69;4851902;29;20239;-93
2022/09/01 16:19:46;;;;;;;7.38;2.88;;;;;;;19.73;56.09;94119.38;4852833;29;20220;-93
2022/09/01 16:22:36;;;;;;;5.28;2.75;;;;;;;20.17;54.92;94128.94;4849902;29;20213;-92
2022/09/01 16:25:28;;;;;;;3.20;2.00;;;;;;;19.93;53.23;94118.72;4849981;29;20610;-92
2022/09/01 16:28:29;;;;;;;2.25;2.05;;;;;;;20.09;52.52;94120.09;4857633;29;20213;-91
2022/09/01 16:31:20;;;;;;;6.97;2.08;;;;;;;19.85;52.35;94119.13;4861601;29;20666;-91
2022/09/01 16:34:17;;;;;;;1.98;1.75;;;;;;;20.13;50.80;94119.50;4870587;29;20209;-94
2022/09/01 16:37:08;;;;;;;1.92;1.50;;;;;;;19.89;50.16;94118.56;4861448;29;20213;-90
2022/09/01 16:39:59;;;;;;;2.22;1.50;;;;;;;20.02;49.50;94121.22;4858544;29;20213;-92
2022/09/01 16:42:47;;;;;;;1.90;1.80;;;;;;;19.94;49.96;94115.22;4837785;29;20267;-92
2022/09/01 16:46:00;;;;;;;1.60;1.40;;;;;;;19.76;51.03;94117.34;4858688;29;20201;-93
2022/09/01 16:49:18;;;;;;;2.90;1.67;;;;;;;19.81;50.70;94113.28;4852792;29;20205;-90
2022/09/01 16:52:52;;;;;;;1.98;1.67;;;;;;;19.66;51.78;94122.63;4860437;29;20209;-91
2022/09/01 16:56:03;;;;;;;4.43;1.67;;;;;;;19.39;51.29;94121.50;4789517;29;20227;-92
2022/09/01 16:58:48;;;;;;;1.80;1.70;;;;;;;19.61;52.56;94113.22;4805453;29;20214;-93
2022/09/01 17:01:58;;;;;;;3.13;2.17;;;;;;;19.47;52.52;94115.47;4862045;29;20698;-90
2022/09/01 17:04:48;;;;;;;2.38;1.85;;;;;;;19.31;52.90;94114.78;4861307;29;20290;-91
2022/09/01 17:07:45;;;;;;;2.15;1.90;;;;;;;18.93;54.58;94119.53;4849290;29;20211;-92
2022/09/01 17:10:32;;;;;;;4.70;2.28;;;;;;;18.90;55.04;94126.50;4841114;29;20242;-94
2022/09/01 17:13:40;;;;;;;2.60;2.20;;;;;;;18.46;56.82;94125.97;4851351;29;20245;-92
2022/09/01 17:16:43;;;;;;;4.07;1.92;;;;;;;18.38;57.77;94124.88;4845718;29;20304;-92
2022/09/01 17:19:28;;;;;;;4.32;2.40;;;;;;;18.45;57.62;94115.28;4854905;29;20290;-92
2022/09/01 17:22:14;;;;;;;4.10;2.35;;;;;;;18.64;57.38;94114.72;4860316;29;20220;-92
2022/09/01 17:25:02;;;;;;;2.55;2.22;;;;;;;18.31;57.89;94129.53;4855156;29;20213;-90
2022/09/01 17:27:54;;;;;;;2.20;2.00;;;;;;;18.46;57.33;94125.22;4853861;29;20213;-91
2022/09/01 17:30:46;;;;;;;2.63;2.10;;;;;;;18.23;59.00;94122.75;4854498;29;20213;-93
2022/09/01 17:34:14;;;;;;;4.43;2.15;;;;;;;18.08;59.15;94124.22;4860544;29;20747;-93
2022/09/01 17:37:31;;;;;;;8.20;2.00;;;;;;;18.10;59.44;94133.53;4807786;29;20224;-93
2022/09/01 17:40:26;;;;;;;3.77;2.03;;;;;;;17.63;61.65;94132.69;4863177;29;20216;-93
2022/09/01 17:43:31;;;;;;;2.43;2.23;;;;;;;17.86;59.98;94137.34;4870599;29;20212;-92
2022/09/01 17:46:26;;;;;;;5.33;2.20;;;;;;;17.66;58.67;94142.75;4861306;29;20275;-89
2022/09/01 17:49:13;;;;;;;3.67;2.00;;;;;;;17.80;57.94;94137.78;4865146;29;20212;-94
2022/09/01 17:52:06;;;;;;;2.17;1.97;;;;;;;17.33;59.63;94129.84;4858983;29;20220;-92
2022/09/01 17:55:08;;;;;;;3.70;2.00;;;;;;;17.31;59.43;94138.22;4851375;29;20221;-92
2022/09/01 17:57:59;;;;;;;3.30;1.70;;;;;;;17.31;60.04;94143.88;4851112;29;20244;-92
2022/09/01 18:01:26;;;;;;;2.83;1.67;;;;;;;17.30;59.83;94153.75;4859798;29;20321;-91
2022/09/01 18:04:41;;;;;;;2.90;1.83;;;;;;;17.16;59.86;94144.53;4860948;29;20203;-89
2022/09/01 18:07:59;;;;;;;4.83;1.97;;;;;;;17.06;60.60;94152.53;4862471;29;20757;-92
2022/09/01 18:11:00;;;;;;;2.33;1.70;;;;;;;16.63;62.18;94152.44;4861751;29;20308;-93
2022/09/01 18:14:04;;;;;;;2.90;1.90;;;;;;;16.60;63.15;94158.63;4864577;29;20564;-93
2022/09/01 18:17:03;;;;;;;4.17;1.63;;;;;;;16.47;63.98;94163.59;4870514;29;20235;-94
2022/09/01 18:19:57;;;;;;;2.20;1.80;;;;;;;16.49;63.54;94158.03;4870737;29;20205;-92
2022/09/01 18:23:07;;;;;;;6.60;1.80;;;;;;;16.46;63.49;94156.47;4876208;29;20216;-93
2022/09/01 18:25:58;;;;;;;2.37;2.03;;;;;;;16.30;64.75;94163.34;4879370;29;20205;-92
2022/09/01 18:28:43;;;;;;;3.23;2.07;;;;;;;16.33;64.44;94171.31;4876805;29;20235;-92
2022/09/01 18:31:33;;;;;;;4.73;2.60;;;;;;;16.22;65.22;94166.50;4864814;29;20265;-95
2022/09/01 18:34:46;;;;;;;5.20;2.10;;;;;;;15.98;66.41;94168.72;4870442;29;20209;-92
2022/09/01 18:37:47;;;;;;;2.23;2.03;;;;;;;15.86;66.67;94175.78;4863876;29;20204;-92
2022/09/01 18:41:07;;;;;;;7.03;2.20;;;;;;;15.75;67.51;94178.03;4862197;29;20216;-92
2022/09/01 18:44:24;;;;;;;4.60;2.30;;;;;;;15.75;67.40;94171.66;4858706;29;20268;-95
2022/09/01 18:47:12;;;;;;;2.30;2.10;;;;;;;15.84;67.36;94173.59;4872429;29;20286;-93
2022/09/01 18:50:06;;;;;;;3.77;2.20;;;;;;;15.87;66.99;94174.41;4875607;29;20299;-94
2022/09/01 18:52:58;;;;;;;3.87;2.07;;;;;;;15.76;67.09;94168.22;4882076;29;20213;-90
2022/09/01 18:55:52;;;;;;;2.43;2.20;;;;;;;15.82;67.23;94175.56;4867545;29;20267;-94
2022/09/01 18:58:51;;;;;;;2.67;2.43;;;;;;;15.77;67.46;94175.34;4864353;29;20288;-93
2022/09/01 19:01:49;;;;;;;3.47;2.70;;;;;;;15.46;69.05;94177.75;4843793;29;20201;-93
2022/09/01 19:04:40;;;;;;;4.17;2.20;;;;;;;15.56;68.58;94171.97;4869769;29;20217;-93
2022/09/01 19:07:30;;;;;;;3.60;2.07;;;;;;;15.36;69.10;94171.53;4868983;29;20261;-94
2022/09/01 19:10:20;;;;;;;2.70;2.03;;;;;;;15.45;69.41;94179.13;4859131;29;20225;-93
2022/09/01 19:13:33;;;;;;;3.10;2.27;;;;;;;15.45;68.57;94173.47;4872964;29;20228;-91
2022/09/01 19:20:46;;;;;;;3.30;2.10;;;;;;;15.45;67.67;94172.72;4878124;29;20258;-92
2022/09/01 19:23:43;;;;;;;6.23;2.50;;;;;;;15.33;67.88;94181.97;4868673;29;20248;-93
2022/09/01 19:26:38;;;;;;;2.77;2.20;;;;;;;15.21;67.92;94155.13;4871036;29;20227;-93
2022/09/01 19:29:30;;;;;;;2.97;2.10;;;;;;;15.19;68.17;94174.75;4854202;29;20253;-92
2022/09/01 19:32:20;;;;;;;2.37;2.10;;;;;;;15.03;68.55;94173.84;4857295;29;20200;-93
2022/09/01 19:35:15;;;;;;;4.47;2.00;;;;;;;15.06;68.04;94156.38;4901904;29;20224;-94
2022/09/01 19:38:26;;;;;;;3.07;2.27;;;;;;;14.76;69.29;94158.16;4880781;29;20197;-94
2022/09/01 19:41:25;;;;;;;3.47;2.37;;;;;;;14.86;69.03;94153.13;4854699;29;20260;-91
2022/09/01 19:44:19;;;;;;;3.17;2.37;;;;;;;14.67;70.24;94175.97;4873711;29;20277;-91
2022/09/01 19:48:07;;;;;;;3.43;2.30;;;;;;;14.85;69.58;94171.41;4879513;29;20210;-92
